»·PEaware :: N911CM KSNA-L71

N911CM :: KSNA-L71

FLIGHT INFORMATION

Flight Status: Arrived
Operator: Privately registered:
United States
More flights under this callsign
Pilot: Austin W. (15609)
Aircraft: BEECH AIRCRAFT SUPER KING AIR COMMUTER
(BE20)
More flights by this aircraft type
Origin: KSNA John Wayne-Orange Co
United States
Destination: L71 California City Mun
United States
More flights between these airports :: More routes between these airports
Route: +MUSEL8 SLI V459 BERRI V201 PMD MOLTT
File this flight plan on PilotEdge
Remarks: RW ATP Pilot / / ForeFlight Onboard / / Childrens Mercy Lifeflight
Altitude:
(Current/Filed)
15,000ft
Speed:
(Current/Filed)
260kts
Departed: 11-Jun-17 03:01 PM
Arrived: 11-Jun-17 03:46 PM
Distance/Time
Traveled:
89nm/0:45
Distance/Time
To Go:
Arrived

Flight Plot

Page will automatically refresh every two minutes.

Flight plan parsing failed; only flown route is shown


Map Options




Map Legend


Flown Route
Filed Route
Departure Airport
Arrival Airport
Navaid (VOR, NDB)
Fix

Horizontal Profiles

Position Reports

Time Latitude Longitude Heading Altitude Ground
Speed
11-Jun-17 14:46 33.674327 -117.872371 221 61ft 0kts
11-Jun-17 14:47 33.674327 -117.872371 221 61ft 0kts
11-Jun-17 14:48 33.674327 -117.872371 221 61ft 0kts
11-Jun-17 14:49 33.674327 -117.872371 221 61ft 0kts
11-Jun-17 14:50 33.674327 -117.872371 221 61ft 0kts
11-Jun-17 14:51 33.674327 -117.872371 221 61ft 0kts
11-Jun-17 14:52 33.674327 -117.872371 221 61ft 0kts
11-Jun-17 14:53 33.674327 -117.872371 221 61ft 0kts
11-Jun-17 14:54 33.674327 -117.872371 221 61ft 0kts
11-Jun-17 14:55 33.674327 -117.872371 221 61ft 0kts
11-Jun-17 14:56 33.674233 -117.872415 195 61ft 7kts
11-Jun-17 14:57 33.674152 -117.872190 64 61ft 0kts
11-Jun-17 14:58 33.674840 -117.870927 30 61ft 8kts
11-Jun-17 14:59 33.677711 -117.869092 25 61ft 4kts
11-Jun-17 15:00 33.680751 -117.867241 28 61ft 14kts
11-Jun-17 15:01 33.680890 -117.866554 117 61ft 4kts
11-Jun-17 15:02 33.679884 -117.866153 207 61ft 26kts
11-Jun-17 15:03 33.654720 -117.882367 206 1269ft 130kts
11-Jun-17 15:04 33.615790 -117.893274 188 3566ft 160kts
11-Jun-17 15:05 33.569803 -117.901944 189 5004ft 203kts
11-Jun-17 15:06 33.540568 -117.949670 261 6754ft 179kts
11-Jun-17 15:07 33.533814 -118.009454 262 8007ft 209kts
11-Jun-17 15:08 33.544931 -118.073604 325 9562ft 191kts
11-Jun-17 15:09 33.591839 -118.053933 30 11940ft 187kts
11-Jun-17 15:10 33.636238 -118.037140 345 14137ft 167kts
11-Jun-17 15:11 33.684207 -118.042531 341 15953ft 192kts
11-Jun-17 15:12 33.748733 -118.050606 345 15998ft 262kts
11-Jun-17 15:13 33.818900 -118.075421 325 15988ft 268kts
11-Jun-17 15:14 33.887113 -118.114445 325 15983ft 274kts
11-Jun-17 15:15 33.954237 -118.153070 325 15980ft 275kts
11-Jun-17 15:16 34.023292 -118.192877 325 15978ft 275kts
11-Jun-17 15:17 34.092299 -118.232755 325 15999ft 275kts
11-Jun-17 15:18 34.161538 -118.272844 325 15998ft 275kts
11-Jun-17 15:19 34.238827 -118.271912 21 16007ft 310kts
11-Jun-17 15:20 34.317411 -118.229840 17 15997ft 309kts
11-Jun-17 15:21 34.396247 -118.188427 17 15986ft 309kts
11-Jun-17 15:22 34.475484 -118.146520 17 15976ft 310kts
11-Jun-17 15:23 34.554523 -118.104607 17 15972ft 311kts
11-Jun-17 15:24 34.634407 -118.064110 5 15956ft 305kts
11-Jun-17 15:25 34.717361 -118.056070 356 15959ft 299kts
11-Jun-17 15:26 34.802319 -118.048386 355 15936ft 305kts
11-Jun-17 15:27 34.874334 -118.078883 322 15295ft 255kts
11-Jun-17 15:28 34.934048 -118.116436 322 14107ft 228kts
11-Jun-17 15:29 34.989682 -118.150536 322 14006ft 232kts
11-Jun-17 15:30 35.061770 -118.135144 20 14005ft 301kts
11-Jun-17 15:31 35.138728 -118.086228 21 13999ft 315kts
11-Jun-17 15:32 35.216091 -118.036572 21 13984ft 314kts
11-Jun-17 15:33 35.292931 -117.985212 28 13973ft 317kts
11-Jun-17 15:34 35.364828 -117.922434 31 13949ft 323kts
11-Jun-17 15:35 35.437410 -117.857701 31 13916ft 322kts
11-Jun-17 15:36 35.510702 -117.791939 31 13868ft 326kts
11-Jun-17 15:37 35.582834 -117.725459 43 13847ft 316kts
11-Jun-17 15:38 35.576999 -117.648120 170 13065ft 218kts
11-Jun-17 15:39 35.521186 -117.671850 202 10595ft 226kts
11-Jun-17 15:40 35.459587 -117.707433 211 8093ft 266kts
11-Jun-17 15:41 35.395774 -117.753875 212 6805ft 252kts
11-Jun-17 15:42 35.335974 -117.797389 212 6800ft 247kts
11-Jun-17 15:43 35.275837 -117.841047 211 6320ft 249kts
11-Jun-17 15:44 35.217789 -117.883090 213 4870ft 230kts
11-Jun-17 15:45 35.185704 -117.931922 241 3402ft 175kts
11-Jun-17 15:46 35.160967 -117.976177 240 2931ft 128kts
11-Jun-17 15:47 35.153009 -118.008343 259 2466ft 68kts
11-Jun-17 15:48 35.150599 -118.016183 104 2459ft 0kts
11-Jun-17 15:49 35.150599 -118.016183 104 2459ft 0kts
11-Jun-17 15:50 35.150599 -118.016181 104 2459ft 0kts
11-Jun-17 15:51 35.150598 -118.016179 104 2459ft 0kts
11-Jun-17 15:52 35.150709 -118.015682 76 2459ft 6kts
11-Jun-17 15:53 35.152086 -118.009424 74 2459ft 17kts

Navigation Log

Ident Type
Flight plan parsing failed, navigation log unavailable